sensor_id;sensor_type;location;lat;lon;timestamp;pressure;altitude;pressure_sealevel;temperature;humidity
59831;BME280;45711;50.108;13.712;2022-11-21T00:01:53;96801.28;;;1.56;97.45
59831;BME280;45711;50.108;13.712;2022-11-21T00:04:19;96801.84;;;1.58;98.27
59831;BME280;45711;50.108;13.712;2022-11-21T00:06:44;96804.31;;;1.69;96.81
59831;BME280;45711;50.108;13.712;2022-11-21T00:09:10;96794.47;;;2.14;94.34
59831;BME280;45711;50.108;13.712;2022-11-21T00:11:37;96792.50;;;2.31;92.52
59831;BME280;45711;50.108;13.712;2022-11-21T00:14:02;96781.09;;;1.93;95.10
59831;BME280;45711;50.108;13.712;2022-11-21T00:16:28;96784.81;;;2.30;92.08
59831;BME280;45711;50.108;13.712;2022-11-21T00:18:54;96779.28;;;1.99;94.99
59831;BME280;45711;50.108;13.712;2022-11-21T00:21:19;96780.78;;;2.22;93.24
59831;BME280;45711;50.108;13.712;2022-11-21T00:23:46;96764.59;;;2.45;91.00
59831;BME280;45711;50.108;13.712;2022-11-21T00:26:13;96753.31;;;2.55;90.27
59831;BME280;45711;50.108;13.712;2022-11-21T00:28:41;96751.47;;;2.56;91.22
59831;BME280;45711;50.108;13.712;2022-11-21T00:31:06;96756.88;;;2.39;91.49
59831;BME280;45711;50.108;13.712;2022-11-21T00:33:33;96750.75;;;2.28;91.61
59831;BME280;45711;50.108;13.712;2022-11-21T00:36:05;96741.84;;;2.02;93.85
59831;BME280;45711;50.108;13.712;2022-11-21T00:38:30;96734.34;;;1.89;95.46
59831;BME280;45711;50.108;13.712;2022-11-21T00:40:56;96738.53;;;1.85;95.77
59831;BME280;45711;50.108;13.712;2022-11-21T00:43:21;96728.72;;;1.75;96.99
59831;BME280;45711;50.108;13.712;2022-11-21T00:45:48;96721.03;;;1.73;97.64
59831;BME280;45711;50.108;13.712;2022-11-21T00:48:14;96727.31;;;1.99;95.31
59831;BME280;45711;50.108;13.712;2022-11-21T00:50:39;96723.03;;;2.31;93.49
59831;BME280;45711;50.108;13.712;2022-11-21T00:53:05;96720.91;;;2.22;93.10
59831;BME280;45711;50.108;13.712;2022-11-21T00:55:30;96717.00;;;1.98;95.34
59831;BME280;45711;50.108;13.712;2022-11-21T00:57:56;96715.28;;;2.14;93.97
59831;BME280;45711;50.108;13.712;2022-11-21T01:00:22;96714.06;;;1.94;96.26
59831;BME280;45711;50.108;13.712;2022-11-21T01:02:49;96704.41;;;2.05;95.49
59831;BME280;45711;50.108;13.712;2022-11-21T01:05:14;96699.72;;;2.17;94.36
59831;BME280;45711;50.108;13.712;2022-11-21T01:07:40;96696.28;;;2.17;94.31
59831;BME280;45711;50.108;13.712;2022-11-21T01:10:06;96705.38;;;1.94;95.66
59831;BME280;45711;50.108;13.712;2022-11-21T01:12:32;96693.00;;;1.99;95.97
59831;BME280;45711;50.108;13.712;2022-11-21T01:14:57;96699.78;;;1.90;96.71
59831;BME280;45711;50.108;13.712;2022-11-21T01:17:23;96684.84;;;2.01;95.53
59831;BME280;45711;50.108;13.712;2022-11-21T01:19:50;96689.69;;;2.14;94.83
59831;BME280;45711;50.108;13.712;2022-11-21T01:22:15;96681.22;;;2.12;94.68
59831;BME280;45711;50.108;13.712;2022-11-21T01:24:41;96681.84;;;2.30;93.34
59831;BME280;45711;50.108;13.712;2022-11-21T01:27:06;96684.44;;;2.67;91.19
59831;BME280;45711;50.108;13.712;2022-11-21T01:29:32;96676.38;;;3.04;87.41
59831;BME280;45711;50.108;13.712;2022-11-21T01:31:57;96673.78;;;3.24;86.16
59831;BME280;45711;50.108;13.712;2022-11-21T01:34:23;96671.94;;;3.20;85.84
59831;BME280;45711;50.108;13.712;2022-11-21T01:36:50;96674.06;;;3.23;86.22
59831;BME280;45711;50.108;13.712;2022-11-21T01:39:15;96670.59;;;3.17;85.75
59831;BME280;45711;50.108;13.712;2022-11-21T01:41:43;96673.78;;;3.30;84.90
59831;BME280;45711;50.108;13.712;2022-11-21T01:44:14;96671.41;;;3.23;86.08
59831;BME280;45711;50.108;13.712;2022-11-21T01:46:40;96671.94;;;3.25;85.93
59831;BME280;45711;50.108;13.712;2022-11-21T01:49:08;96665.34;;;3.27;85.95
59831;BME280;45711;50.108;13.712;2022-11-21T01:51:38;96667.44;;;3.25;85.24
59831;BME280;45711;50.108;13.712;2022-11-21T01:54:10;96660.84;;;3.28;85.88
59831;BME280;45711;50.108;13.712;2022-11-21T01:56:39;96660.28;;;3.16;86.24
59831;BME280;45711;50.108;13.712;2022-11-21T01:59:08;96654.97;;;3.00;87.75
59831;BME280;45711;50.108;13.712;2022-11-21T02:01:36;96652.03;;;2.92;88.04
59831;BME280;45711;50.108;13.712;2022-11-21T02:04:03;96653.63;;;2.93;87.68
59831;BME280;45711;50.108;13.712;2022-11-21T02:06:31;96644.72;;;3.24;85.69
59831;BME280;45711;50.108;13.712;2022-11-21T02:08:58;96643.38;;;3.17;86.33
59831;BME280;45711;50.108;13.712;2022-11-21T02:11:30;96638.91;;;3.38;85.03
59831;BME280;45711;50.108;13.712;2022-11-21T02:13:58;96633.34;;;3.29;85.66
59831;BME280;45711;50.108;13.712;2022-11-21T02:16:24;96633.06;;;3.31;84.91
59831;BME280;45711;50.108;13.712;2022-11-21T02:18:50;96637.84;;;3.44;84.25
59831;BME280;45711;50.108;13.712;2022-11-21T02:21:23;96632.28;;;3.35;85.03
59831;BME280;45711;50.108;13.712;2022-11-21T02:23:56;96636.00;;;3.39;84.92
59831;BME280;45711;50.108;13.712;2022-11-21T02:26:26;96638.84;;;2.97;88.91
59831;BME280;45711;50.108;13.712;2022-11-21T02:28:53;96625.66;;;3.17;85.87
59831;BME280;45711;50.108;13.712;2022-11-21T02:31:18;96629.25;;;2.75;90.68
59831;BME280;45711;50.108;13.712;2022-11-21T02:33:44;96626.41;;;2.97;89.59
59831;BME280;45711;50.108;13.712;2022-11-21T02:36:36;96620.28;;;2.76;90.51
59831;BME280;45711;50.108;13.712;2022-11-21T02:39:04;96623.38;;;2.53;92.34
59831;BME280;45711;50.108;13.712;2022-11-21T02:41:34;96620.63;;;2.33;94.46
59831;BME280;45711;50.108;13.712;2022-11-21T02:44:06;96612.94;;;2.94;89.27
59831;BME280;45711;50.108;13.712;2022-11-21T02:46:34;96610.31;;;3.09;87.78
59831;BME280;45711;50.108;13.712;2022-11-21T02:49:03;96601.34;;;3.20;87.16
59831;BME280;45711;50.108;13.712;2022-11-21T02:51:30;96604.41;;;2.61;92.22
59831;BME280;45711;50.108;13.712;2022-11-21T02:53:56;96597.88;;;2.94;88.81
59831;BME280;45711;50.108;13.712;2022-11-21T02:56:21;96596.50;;;2.76;91.02
59831;BME280;45711;50.108;13.712;2022-11-21T02:58:48;96609.22;;;2.95;89.40
59831;BME280;45711;50.108;13.712;2022-11-21T03:01:14;96602.06;;;2.80;90.48
59831;BME280;45711;50.108;13.712;2022-11-21T03:03:39;96597.88;;;3.05;89.75
59831;BME280;45711;50.108;13.712;2022-11-21T03:06:07;96601.88;;;3.22;87.41
59831;BME280;45711;50.108;13.712;2022-11-21T03:08:33;96596.50;;;2.76;91.47
59831;BME280;45711;50.108;13.712;2022-11-21T03:10:59;96599.75;;;3.09;88.00
59831;BME280;45711;50.108;13.712;2022-11-21T03:13:24;96593.41;;;3.05;88.68
59831;BME280;45711;50.108;13.712;2022-11-21T03:15:51;96594.44;;;2.99;88.79
59831;BME280;45711;50.108;13.712;2022-11-21T03:18:16;96603.91;;;2.74;92.45
59831;BME280;45711;50.108;13.712;2022-11-21T03:20:42;96584.38;;;2.96;89.70
59831;BME280;45711;50.108;13.712;2022-11-21T03:23:08;96584.38;;;2.96;89.84
59831;BME280;45711;50.108;13.712;2022-11-21T03:25:33;96590.50;;;3.12;88.42
59831;BME280;45711;50.108;13.712;2022-11-21T03:27:59;96586.41;;;2.58;93.02
59831;BME280;45711;50.108;13.712;2022-11-21T03:30:25;96574.88;;;2.95;89.30
59831;BME280;45711;50.108;13.712;2022-11-21T03:32:55;96580.69;;;2.97;89.94
59831;BME280;45711;50.108;13.712;2022-11-21T03:35:20;96578.00;;;2.71;91.58
59831;BME280;45711;50.108;13.712;2022-11-21T03:37:47;96575.78;;;2.48;93.34
59831;BME280;45711;50.108;13.712;2022-11-21T03:40:12;96572.41;;;2.58;93.19
59831;BME280;45711;50.108;13.712;2022-11-21T03:42:38;96569.78;;;2.63;93.14
59831;BME280;45711;50.108;13.712;2022-11-21T03:45:04;96567.16;;;2.63;92.81
59831;BME280;45711;50.108;13.712;2022-11-21T03:47:30;96563.19;;;2.65;93.16
59831;BME280;45711;50.108;13.712;2022-11-21T03:49:57;96567.44;;;2.87;90.96
59831;BME280;45711;50.108;13.712;2022-11-21T03:52:22;96562.16;;;2.71;92.80
59831;BME280;45711;50.108;13.712;2022-11-21T03:54:48;96555.06;;;2.97;90.00
59831;BME280;45711;50.108;13.712;2022-11-21T03:57:13;96551.34;;;3.03;89.43
59831;BME280;45711;50.108;13.712;2022-11-21T03:59:39;96542.63;;;2.88;91.27
59831;BME280;45711;50.108;13.712;2022-11-21T04:02:04;96551.09;;;3.20;88.44
59831;BME280;45711;50.108;13.712;2022-11-21T04:04:30;96542.88;;;2.81;92.00
59831;BME280;45711;50.108;13.712;2022-11-21T04:06:57;96551.09;;;3.00;90.88
59831;BME280;45711;50.108;13.712;2022-11-21T04:09:25;96549.00;;;2.97;91.41
59831;BME280;45711;50.108;13.712;2022-11-21T04:11:55;96543.69;;;3.12;90.60
59831;BME280;45711;50.108;13.712;2022-11-21T04:14:21;96546.09;;;3.19;87.69
59831;BME280;45711;50.108;13.712;2022-11-21T04:16:46;96535.50;;;2.98;91.80
59831;BME280;45711;50.108;13.712;2022-11-21T04:19:12;96524.69;;;3.05;89.37
59831;BME280;45711;50.108;13.712;2022-11-21T04:21:37;96532.06;;;2.93;92.22
59831;BME280;45711;50.108;13.712;2022-11-21T04:24:11;96533.66;;;3.19;89.42
59831;BME280;45711;50.108;13.712;2022-11-21T04:26:37;96532.34;;;3.07;89.95
59831;BME280;45711;50.108;13.712;2022-11-21T04:29:02;96521.47;;;2.72;94.55
59831;BME280;45711;50.108;13.712;2022-11-21T04:31:28;96521.50;;;2.98;91.74
59831;BME280;45711;50.108;13.712;2022-11-21T04:33:54;96523.03;;;2.63;95.34
59831;BME280;45711;50.108;13.712;2022-11-21T04:36:19;96518.53;;;2.59;95.47
59831;BME280;45711;50.108;13.712;2022-11-21T04:38:45;96512.78;;;2.97;91.70
59831;BME280;45711;50.108;13.712;2022-11-21T04:41:11;96506.41;;;2.78;94.31
59831;BME280;45711;50.108;13.712;2022-11-21T04:43:37;96509.34;;;2.97;91.64
59831;BME280;45711;50.108;13.712;2022-11-21T04:46:03;96510.94;;;3.28;89.22
59831;BME280;45711;50.108;13.712;2022-11-21T04:48:28;96499.56;;;3.23;89.13
59831;BME280;45711;50.108;13.712;2022-11-21T04:50:54;96495.59;;;3.20;89.96
59831;BME280;45711;50.108;13.712;2022-11-21T04:53:19;96508.81;;;3.15;90.05
59831;BME280;45711;50.108;13.712;2022-11-21T04:55:45;96503.25;;;3.37;88.06
59831;BME280;45711;50.108;13.712;2022-11-21T04:58:12;96506.69;;;3.53;86.98
59831;BME280;45711;50.108;13.712;2022-11-21T05:00:38;96495.06;;;3.23;89.73
59831;BME280;45711;50.108;13.712;2022-11-21T05:03:04;96491.09;;;3.16;93.00
59831;BME280;45711;50.108;13.712;2022-11-21T05:05:31;96481.59;;;2.99;93.60
59831;BME280;45711;50.108;13.712;2022-11-21T05:07:56;96481.31;;;3.16;89.89
59831;BME280;45711;50.108;13.712;2022-11-21T05:10:22;96483.16;;;2.95;94.07
59831;BME280;45711;50.108;13.712;2022-11-21T05:12:55;96480.00;;;2.93;94.29
59831;BME280;45711;50.108;13.712;2022-11-21T05:15:42;96491.63;;;3.23;90.82
59831;BME280;45711;50.108;13.712;2022-11-21T05:18:07;96485.03;;;3.20;90.93
59831;BME280;45711;50.108;13.712;2022-11-21T05:20:33;96480.25;;;3.33;90.59
59831;BME280;45711;50.108;13.712;2022-11-21T05:22:58;96473.66;;;3.10;92.23
59831;BME280;45711;50.108;13.712;2022-11-21T05:25:24;96477.63;;;3.27;91.49
59831;BME280;45711;50.108;13.712;2022-11-21T05:27:49;96478.69;;;3.11;93.31
59831;BME280;45711;50.108;13.712;2022-11-21T05:30:15;96484.25;;;3.10;92.01
59831;BME280;45711;50.108;13.712;2022-11-21T05:32:43;96482.66;;;3.14;94.04
59831;BME280;45711;50.108;13.712;2022-11-21T05:35:09;96481.31;;;3.26;90.44
59831;BME280;45711;50.108;13.712;2022-11-21T05:37:34;96483.41;;;3.35;91.64
59831;BME280;45711;50.108;13.712;2022-11-21T05:40:00;96477.81;;;3.57;87.55
59831;BME280;45711;50.108;13.712;2022-11-21T05:42:26;96473.09;;;3.33;90.42
59831;BME280;45711;50.108;13.712;2022-11-21T05:45:10;96474.97;;;3.33;91.80
59831;BME280;45711;50.108;13.712;2022-11-21T05:47:35;96466.44;;;3.56;86.54
59831;BME280;45711;50.108;13.712;2022-11-21T05:50:03;96467.00;;;3.58;87.46
59831;BME280;45711;50.108;13.712;2022-11-21T05:52:29;96463.91;;;3.05;92.48
59831;BME280;45711;50.108;13.712;2022-11-21T05:54:54;96466.00;;;3.18;91.79
59831;BME280;45711;50.108;13.712;2022-11-21T05:57:20;96467.78;;;3.53;87.70
59831;BME280;45711;50.108;13.712;2022-11-21T05:59:45;96470.94;;;3.61;87.17
59831;BME280;45711;50.108;13.712;2022-11-21T06:02:11;96467.50;;;3.60;86.99
59831;BME280;45711;50.108;13.712;2022-11-21T06:04:55;96465.38;;;3.67;86.15
59831;BME280;45711;50.108;13.712;2022-11-21T06:07:22;96471.72;;;3.66;86.66
59831;BME280;45711;50.108;13.712;2022-11-21T06:09:47;96464.59;;;3.67;86.53
59831;BME280;45711;50.108;13.712;2022-11-21T06:12:13;96475.44;;;3.55;88.13
59831;BME280;45711;50.108;13.712;2022-11-21T06:14:38;96467.22;;;3.67;86.14
59831;BME280;45711;50.108;13.712;2022-11-21T06:17:04;96469.88;;;3.67;85.96
59831;BME280;45711;50.108;13.712;2022-11-21T06:19:29;96467.50;;;3.70;86.18
59831;BME280;45711;50.108;13.712;2022-11-21T06:21:55;96472.78;;;3.70;87.21
59831;BME280;45711;50.108;13.712;2022-11-21T06:24:22;96470.66;;;3.67;85.99
59831;BME280;45711;50.108;13.712;2022-11-21T06:26:48;96471.72;;;3.71;85.72
59831;BME280;45711;50.108;13.712;2022-11-21T06:29:13;96466.13;;;3.73;85.40
59831;BME280;45711;50.108;13.712;2022-11-21T06:31:41;96465.91;;;3.59;87.26
59831;BME280;45711;50.108;13.712;2022-11-21T06:34:06;96463.78;;;3.66;85.94
59831;BME280;45711;50.108;13.712;2022-11-21T06:36:32;96478.34;;;3.64;87.14
59831;BME280;45711;50.108;13.712;2022-11-21T06:38:57;96474.38;;;3.66;86.19
59831;BME280;45711;50.108;13.712;2022-11-21T06:41:25;96469.03;;;3.82;84.67
59831;BME280;45711;50.108;13.712;2022-11-21T06:43:54;96480.13;;;3.78;85.33
59831;BME280;45711;50.108;13.712;2022-11-21T06:46:20;96477.84;;;3.41;88.87
59831;BME280;45711;50.108;13.712;2022-11-21T06:48:46;96481.28;;;3.57;88.14
59831;BME280;45711;50.108;13.712;2022-11-21T06:51:14;96483.13;;;3.62;86.63
59831;BME280;45711;50.108;13.712;2022-11-21T06:53:40;96480.41;;;3.77;86.07
59831;BME280;45711;50.108;13.712;2022-11-21T06:56:06;96484.38;;;3.85;85.31
59831;BME280;45711;50.108;13.712;2022-11-21T06:58:32;96487.03;;;3.80;85.51
59831;BME280;45711;50.108;13.712;2022-11-21T07:01:03;96483.84;;;3.77;85.70
59831;BME280;45711;50.108;13.712;2022-11-21T07:03:29;96485.97;;;3.81;85.60
59831;BME280;45711;50.108;13.712;2022-11-21T07:05:55;96482.00;;;3.73;85.84
59831;BME280;45711;50.108;13.712;2022-11-21T07:08:23;96491.28;;;3.75;86.19
59831;BME280;45711;50.108;13.712;2022-11-21T07:10:49;96494.94;;;3.90;85.30
59831;BME280;45711;50.108;13.712;2022-11-21T07:13:15;96501.81;;;3.86;85.39
59831;BME280;45711;50.108;13.712;2022-11-21T07:15:48;96503.16;;;3.78;85.81
59831;BME280;45711;50.108;13.712;2022-11-21T07:18:14;96500.25;;;3.85;85.71
59831;BME280;45711;50.108;13.712;2022-11-21T07:20:40;96507.38;;;3.89;85.27
59831;BME280;45711;50.108;13.712;2022-11-21T07:23:07;96499.94;;;3.91;85.11
59831;BME280;45711;50.108;13.712;2022-11-21T07:25:33;96508.13;;;4.00;84.49
59831;BME280;45711;50.108;13.712;2022-11-21T07:27:59;96503.91;;;3.94;85.04
59831;BME280;45711;50.108;13.712;2022-11-21T07:30:24;96504.69;;;3.99;84.87
59831;BME280;45711;50.108;13.712;2022-11-21T07:32:55;96509.75;;;3.91;86.41
59831;BME280;45711;50.108;13.712;2022-11-21T07:35:21;96505.78;;;3.93;85.69
59831;BME280;45711;50.108;13.712;2022-11-21T07:37:47;96501.00;;;3.90;85.12
59831;BME280;45711;50.108;13.712;2022-11-21T07:40:12;96506.53;;;3.99;85.00
59831;BME280;45711;50.108;13.712;2022-11-21T07:42:38;96513.47;;;3.90;86.00
59831;BME280;45711;50.108;13.712;2022-11-21T07:45:04;96507.09;;;4.01;85.08
59831;BME280;45711;50.108;13.712;2022-11-21T07:47:29;96505.47;;;4.05;84.97
59831;BME280;45711;50.108;13.712;2022-11-21T07:49:56;96510.47;;;4.12;84.75
59831;BME280;45711;50.108;13.712;2022-11-21T07:52:22;96508.06;;;4.20;84.28
59831;BME280;45711;50.108;13.712;2022-11-21T07:54:47;96520.81;;;4.08;84.63
59831;BME280;45711;50.108;13.712;2022-11-21T07:57:13;96515.72;;;4.22;84.65
59831;BME280;45711;50.108;13.712;2022-11-21T07:59:38;96529.25;;;4.20;83.84
59831;BME280;45711;50.108;13.712;2022-11-21T08:02:04;96538.41;;;4.93;81.41
59831;BME280;45711;50.108;13.712;2022-11-21T08:04:30;96531.47;;;4.58;84.29
59831;BME280;45711;50.108;13.712;2022-11-21T08:06:56;96534.25;;;4.22;83.89
59831;BME280;45711;50.108;13.712;2022-11-21T08:09:26;96537.16;;;4.25;83.80
59831;BME280;45711;50.108;13.712;2022-11-21T08:11:52;96543.81;;;4.23;85.43
59831;BME280;45711;50.108;13.712;2022-11-21T08:14:18;96542.72;;;4.29;83.26
59831;BME280;45711;50.108;13.712;2022-11-21T08:16:43;96548.28;;;4.27;84.02
59831;BME280;45711;50.108;13.712;2022-11-21T08:19:09;96546.44;;;4.28;87.88
59831;BME280;45711;50.108;13.712;2022-11-21T08:21:36;96545.84;;;4.41;84.76
59831;BME280;45711;50.108;13.712;2022-11-21T08:24:03;96540.75;;;4.55;82.54
59831;BME280;45711;50.108;13.712;2022-11-21T08:26:29;96543.72;;;4.93;82.17
59831;BME280;45711;50.108;13.712;2022-11-21T08:28:54;96551.56;;;4.64;82.29
59831;BME280;45711;50.108;13.712;2022-11-21T08:31:20;96561.94;;;4.55;83.14
59831;BME280;45711;50.108;13.712;2022-11-21T08:33:45;96560.09;;;4.50;82.66
59831;BME280;45711;50.108;13.712;2022-11-21T08:36:11;96566.72;;;4.53;82.62
59831;BME280;45711;50.108;13.712;2022-11-21T08:38:36;96562.75;;;4.50;82.72
59831;BME280;45711;50.108;13.712;2022-11-21T08:41:03;96574.81;;;4.77;82.25
59831;BME280;45711;50.108;13.712;2022-11-21T08:43:48;96568.59;;;4.97;80.60
59831;BME280;45711;50.108;13.712;2022-11-21T08:46:13;96577.81;;;5.04;80.53
59831;BME280;45711;50.108;13.712;2022-11-21T08:48:39;96581.44;;;4.79;82.06
59831;BME280;45711;50.108;13.712;2022-11-21T08:51:04;96585.13;;;4.78;81.63
59831;BME280;45711;50.108;13.712;2022-11-21T08:53:30;96586.72;;;4.74;82.96
59831;BME280;45711;50.108;13.712;2022-11-21T08:55:55;96596.06;;;4.67;82.34
59831;BME280;45711;50.108;13.712;2022-11-21T08:58:22;96597.09;;;4.66;84.42
59831;BME280;45711;50.108;13.712;2022-11-21T09:00:47;96592.38;;;4.63;83.54
59831;BME280;45711;50.108;13.712;2022-11-21T09:03:13;96600.84;;;4.65;83.17
59831;BME280;45711;50.108;13.712;2022-11-21T09:05:39;96602.63;;;4.74;83.13
59831;BME280;45711;50.108;13.712;2022-11-21T09:08:04;96601.91;;;4.64;82.46
59831;BME280;45711;50.108;13.712;2022-11-21T09:10:30;96613.50;;;4.78;85.26
59831;BME280;45711;50.108;13.712;2022-11-21T09:12:56;96610.88;;;4.73;83.45
59831;BME280;45711;50.108;13.712;2022-11-21T09:15:23;96616.16;;;4.73;84.00
59831;BME280;45711;50.108;13.712;2022-11-21T09:18:10;96616.97;;;4.73;82.57
59831;BME280;45711;50.108;13.712;2022-11-21T09:20:39;96613.81;;;4.61;82.55
59831;BME280;45711;50.108;13.712;2022-11-21T09:23:05;96611.72;;;4.63;83.01
59831;BME280;45711;50.108;13.712;2022-11-21T09:25:30;96622.81;;;4.65;83.55
59831;BME280;45711;50.108;13.712;2022-11-21T09:27:58;96629.19;;;4.64;83.92
59831;BME280;45711;50.108;13.712;2022-11-21T09:30:25;96629.16;;;4.69;83.42
59831;BME280;45711;50.108;13.712;2022-11-21T09:32:50;96630.78;;;4.70;84.35
59831;BME280;45711;50.108;13.712;2022-11-21T09:35:17;96633.13;;;4.72;82.32
59831;BME280;45711;50.108;13.712;2022-11-21T09:37:42;96637.88;;;4.80;83.40
59831;BME280;45711;50.108;13.712;2022-11-21T09:40:12;96640.78;;;4.78;82.30
59831;BME280;45711;50.108;13.712;2022-11-21T09:42:59;96648.75;;;4.73;82.76
59831;BME280;45711;50.108;13.712;2022-11-21T09:45:31;96647.16;;;4.77;83.23
59831;BME280;45711;50.108;13.712;2022-11-21T09:48:01;96646.66;;;4.75;82.82
59831;BME280;45711;50.108;13.712;2022-11-21T09:50:30;96647.22;;;4.67;82.49
59831;BME280;45711;50.108;13.712;2022-11-21T09:53:00;96652.25;;;4.64;82.50
59831;BME280;45711;50.108;13.712;2022-11-21T09:55:35;96649.31;;;4.65;82.19
59831;BME280;45711;50.108;13.712;2022-11-21T09:58:03;96660.47;;;4.67;82.87
59831;BME280;45711;50.108;13.712;2022-11-21T10:00:31;96655.66;;;4.69;82.00
59831;BME280;45711;50.108;13.712;2022-11-21T10:02:58;96660.72;;;4.71;81.80
59831;BME280;45711;50.108;13.712;2022-11-21T10:05:31;96662.28;;;4.72;81.76
59831;BME280;45711;50.108;13.712;2022-11-21T10:08:03;96677.41;;;4.71;81.36
59831;BME280;45711;50.108;13.712;2022-11-21T10:10:42;96670.53;;;4.65;82.15
59831;BME280;45711;50.108;13.712;2022-11-21T10:13:22;96672.94;;;4.62;82.05
59831;BME280;45711;50.108;13.712;2022-11-21T10:15:56;96684.59;;;4.56;82.16
59831;BME280;45711;50.108;13.712;2022-11-21T10:18:48;96680.88;;;4.62;81.89
59831;BME280;45711;50.108;13.712;2022-11-21T10:21:28;96680.88;;;4.67;81.33
59831;BME280;45711;50.108;13.712;2022-11-21T10:24:11;96684.78;;;4.74;82.03
59831;BME280;45711;50.108;13.712;2022-11-21T10:26:49;96679.50;;;4.79;81.51
59831;BME280;45711;50.108;13.712;2022-11-21T10:29:20;96680.53;;;4.89;80.81
59831;BME280;45711;50.108;13.712;2022-11-21T10:31:53;96681.06;;;4.81;81.21
59831;BME280;45711;50.108;13.712;2022-11-21T10:34:23;96687.16;;;4.86;81.25
59831;BME280;45711;50.108;13.712;2022-11-21T10:36:54;96683.69;;;4.91;80.59
59831;BME280;45711;50.108;13.712;2022-11-21T10:39:24;96686.81;;;5.03;80.66
59831;BME280;45711;50.108;13.712;2022-11-21T10:41:56;96684.94;;;5.03;80.06
59831;BME280;45711;50.108;13.712;2022-11-21T10:44:25;96689.50;;;4.98;80.39
59831;BME280;45711;50.108;13.712;2022-11-21T10:47:16;96694.56;;;4.89;80.76
59831;BME280;45711;50.108;13.712;2022-11-21T10:49:54;96694.06;;;4.77;80.35
59831;BME280;45711;50.108;13.712;2022-11-21T10:52:22;96696.22;;;4.75;80.38
59831;BME280;45711;50.108;13.712;2022-11-21T10:55:14;96697.53;;;4.72;81.25
59831;BME280;45711;50.108;13.712;2022-11-21T10:57:43;96699.66;;;4.75;81.16
59831;BME280;45711;50.108;13.712;2022-11-21T11:00:21;96696.47;;;4.73;81.62
59831;BME280;45711;50.108;13.712;2022-11-21T11:03:05;96711.06;;;4.71;81.02
59831;BME280;45711;50.108;13.712;2022-11-21T11:05:33;96710.28;;;4.70;81.11
59831;BME280;45711;50.108;13.712;2022-11-21T11:08:01;96704.97;;;4.60;80.47
59831;BME280;45711;50.108;13.712;2022-11-21T11:10:27;96707.59;;;4.75;81.61
59831;BME280;45711;50.108;13.712;2022-11-21T11:12:53;96712.06;;;4.85;81.39
59831;BME280;45711;50.108;13.712;2022-11-21T11:15:52;96704.63;;;4.87;81.33
59831;BME280;45711;50.108;13.712;2022-11-21T11:18:21;96697.78;;;4.81;80.29
59831;BME280;45711;50.108;13.712;2022-11-21T11:20:48;96705.69;;;4.86;80.48
59831;BME280;45711;50.108;13.712;2022-11-21T11:23:15;96706.50;;;4.87;80.96
59831;BME280;45711;50.108;13.712;2022-11-21T11:25:44;96700.38;;;4.91;81.58
59831;BME280;45711;50.108;13.712;2022-11-21T11:28:11;96703.00;;;5.01;81.94
59831;BME280;45711;50.108;13.712;2022-11-21T11:30:37;96698.22;;;4.98;80.76
59831;BME280;45711;50.108;13.712;2022-11-21T11:33:04;96697.13;;;5.04;80.28
59831;BME280;45711;50.108;13.712;2022-11-21T11:35:32;96709.94;;;4.92;80.56
59831;BME280;45711;50.108;13.712;2022-11-21T11:38:00;96701.19;;;4.87;81.20
59831;BME280;45711;50.108;13.712;2022-11-21T11:40:31;96712.34;;;4.84;81.45
59831;BME280;45711;50.108;13.712;2022-11-21T11:43:19;96699.34;;;4.82;81.16
59831;BME280;45711;50.108;13.712;2022-11-21T11:46:19;96698.03;;;4.85;80.87
59831;BME280;45711;50.108;13.712;2022-11-21T11:49:09;96693.78;;;4.89;80.62
59831;BME280;45711;50.108;13.712;2022-11-21T11:51:41;96700.13;;;4.83;79.56
59831;BME280;45711;50.108;13.712;2022-11-21T11:54:14;96694.53;;;4.94;80.36
59831;BME280;45711;50.108;13.712;2022-11-21T11:56:42;96693.78;;;4.89;80.17
59831;BME280;45711;50.108;13.712;2022-11-21T11:59:13;96699.59;;;4.86;80.86
59831;BME280;45711;50.108;13.712;2022-11-21T12:01:41;96696.69;;;4.92;81.06
59831;BME280;45711;50.108;13.712;2022-11-21T12:04:12;96694.50;;;4.99;80.79
59831;BME280;45711;50.108;13.712;2022-11-21T12:06:45;96701.13;;;5.02;80.14
59831;BME280;45711;50.108;13.712;2022-11-21T12:09:20;96694.81;;;4.93;79.72
59831;BME280;45711;50.108;13.712;2022-11-21T12:11:52;96690.06;;;4.90;79.96
59831;BME280;45711;50.108;13.712;2022-11-21T12:14:45;96695.34;;;4.90;80.59
59831;BME280;45711;50.108;13.712;2022-11-21T12:17:35;96687.69;;;4.83;79.94
59831;BME280;45711;50.108;13.712;2022-11-21T12:20:12;96698.28;;;4.88;80.61
59831;BME280;45711;50.108;13.712;2022-11-21T12:22:41;96691.34;;;4.97;80.46
59831;BME280;45711;50.108;13.712;2022-11-21T12:25:10;96679.19;;;4.86;79.24
59831;BME280;45711;50.108;13.712;2022-11-21T12:27:40;96682.59;;;5.02;78.86
59831;BME280;45711;50.108;13.712;2022-11-21T12:30:33;96679.13;;;5.01;79.44
59831;BME280;45711;50.108;13.712;2022-11-21T12:33:04;96683.06;;;5.09;79.92
59831;BME280;45711;50.108;13.712;2022-11-21T12:35:59;96674.59;;;5.07;79.61
59831;BME280;45711;50.108;13.712;2022-11-21T12:38:42;96683.34;;;5.08;79.72
59831;BME280;45711;50.108;13.712;2022-11-21T12:41:13;96675.19;;;4.94;78.67
59831;BME280;45711;50.108;13.712;2022-11-21T12:44:11;96679.94;;;5.02;80.49
59831;BME280;45711;50.108;13.712;2022-11-21T12:46:48;96680.13;;;5.16;80.28
59831;BME280;45711;50.108;13.712;2022-11-21T12:49:23;96683.56;;;5.16;79.17
59831;BME280;45711;50.108;13.712;2022-11-21T12:52:18;96680.97;;;5.06;78.82
59831;BME280;45711;50.108;13.712;2022-11-21T12:55:13;96677.50;;;5.11;79.83
59831;BME280;45711;50.108;13.712;2022-11-21T12:57:50;96685.69;;;5.19;79.84
59831;BME280;45711;50.108;13.712;2022-11-21T13:00:24;96682.75;;;5.21;80.12
59831;BME280;45711;50.108;13.712;2022-11-21T13:03:06;96677.16;;;5.27;79.59
59831;BME280;45711;50.108;13.712;2022-11-21T13:05:44;96673.94;;;5.30;79.36
59831;BME280;45711;50.108;13.712;2022-11-21T13:08:13;96680.63;;;5.23;78.91
59831;BME280;45711;50.108;13.712;2022-11-21T13:10:45;96680.38;;;5.19;79.51